sensor_id;sensor_type;location;lat;lon;timestamp;P1;durP1;ratioP1;P2;durP2;ratioP2
28296;SDS011;62078;49.366;8.172;2023-02-03T00:01:23;7.85;;;1.63;;
28296;SDS011;62078;49.366;8.172;2023-02-03T00:03:49;3.90;;;1.40;;
28296;SDS011;62078;49.366;8.172;2023-02-03T00:06:15;4.05;;;1.27;;
28296;SDS011;62078;49.366;8.172;2023-02-03T00:08:41;5.03;;;1.13;;
28296;SDS011;62078;49.366;8.172;2023-02-03T00:11:07;3.55;;;1.25;;
28296;SDS011;62078;49.366;8.172;2023-02-03T00:13:33;5.22;;;1.13;;
28296;SDS011;62078;49.366;8.172;2023-02-03T00:15:59;4.00;;;1.25;;
28296;SDS011;62078;49.366;8.172;2023-02-03T00:18:26;4.07;;;1.00;;
28296;SDS011;62078;49.366;8.172;2023-02-03T00:20:52;4.85;;;1.30;;
28296;SDS011;62078;49.366;8.172;2023-02-03T00:23:18;4.25;;;1.10;;
28296;SDS011;62078;49.366;8.172;2023-02-03T00:25:44;4.60;;;1.40;;
28296;SDS011;62078;49.366;8.172;2023-02-03T00:28:10;4.63;;;1.52;;
28296;SDS011;62078;49.366;8.172;2023-02-03T00:30:36;3.58;;;0.90;;
28296;SDS011;62078;49.366;8.172;2023-02-03T00:33:03;4.78;;;1.40;;
28296;SDS011;62078;49.366;8.172;2023-02-03T00:35:28;2.40;;;0.85;;
28296;SDS011;62078;49.366;8.172;2023-02-03T00:37:55;5.00;;;1.30;;
28296;SDS011;62078;49.366;8.172;2023-02-03T00:40:23;3.40;;;1.13;;
28296;SDS011;62078;49.366;8.172;2023-02-03T00:42:50;5.22;;;1.30;;
28296;SDS011;62078;49.366;8.172;2023-02-03T00:45:16;4.47;;;1.17;;
28296;SDS011;62078;49.366;8.172;2023-02-03T00:47:42;4.25;;;1.00;;
28296;SDS011;62078;49.366;8.172;2023-02-03T00:50:08;3.90;;;1.30;;
28296;SDS011;62078;49.366;8.172;2023-02-03T00:52:35;5.68;;;1.42;;
28296;SDS011;62078;49.366;8.172;2023-02-03T00:55:00;4.60;;;1.13;;
28296;SDS011;62078;49.366;8.172;2023-02-03T00:57:27;4.80;;;1.30;;
28296;SDS011;62078;49.366;8.172;2023-02-03T00:59:53;6.50;;;1.55;;
28296;SDS011;62078;49.366;8.172;2023-02-03T01:02:19;4.85;;;1.30;;
28296;SDS011;62078;49.366;8.172;2023-02-03T01:04:45;2.80;;;1.00;;
28296;SDS011;62078;49.366;8.172;2023-02-03T01:07:11;4.57;;;1.30;;
28296;SDS011;62078;49.366;8.172;2023-02-03T01:09:36;4.30;;;1.25;;
28296;SDS011;62078;49.366;8.172;2023-02-03T01:12:03;2.95;;;1.10;;
28296;SDS011;62078;49.366;8.172;2023-02-03T01:14:29;3.72;;;1.10;;
28296;SDS011;62078;49.366;8.172;2023-02-03T01:16:55;3.97;;;1.40;;
28296;SDS011;62078;49.366;8.172;2023-02-03T01:19:20;3.15;;;1.20;;
28296;SDS011;62078;49.366;8.172;2023-02-03T01:21:46;2.92;;;1.15;;
28296;SDS011;62078;49.366;8.172;2023-02-03T01:24:12;7.53;;;1.30;;
28296;SDS011;62078;49.366;8.172;2023-02-03T01:26:39;2.75;;;1.05;;
28296;SDS011;62078;49.366;8.172;2023-02-03T01:29:05;4.55;;;1.50;;
28296;SDS011;62078;49.366;8.172;2023-02-03T01:31:33;4.63;;;1.25;;
28296;SDS011;62078;49.366;8.172;2023-02-03T01:34:03;5.32;;;1.77;;
28296;SDS011;62078;49.366;8.172;2023-02-03T01:36:31;4.55;;;1.27;;
28296;SDS011;62078;49.366;8.172;2023-02-03T01:38:58;3.05;;;1.30;;
28296;SDS011;62078;49.366;8.172;2023-02-03T01:41:26;2.92;;;1.10;;
28296;SDS011;62078;49.366;8.172;2023-02-03T01:43:54;3.05;;;1.20;;
28296;SDS011;62078;49.366;8.172;2023-02-03T01:49:21;3.22;;;1.30;;
28296;SDS011;62078;49.366;8.172;2023-02-03T01:51:53;3.97;;;1.45;;
28296;SDS011;62078;49.366;8.172;2023-02-03T01:54:30;3.90;;;1.40;;
28296;SDS011;62078;49.366;8.172;2023-02-03T01:57:09;3.60;;;1.17;;
28296;SDS011;62078;49.366;8.172;2023-02-03T01:59:39;5.53;;;1.48;;
28296;SDS011;62078;49.366;8.172;2023-02-03T02:02:06;3.95;;;1.30;;
28296;SDS011;62078;49.366;8.172;2023-02-03T02:04:38;4.95;;;1.33;;
28296;SDS011;62078;49.366;8.172;2023-02-03T02:07:14;4.18;;;1.40;;
28296;SDS011;62078;49.366;8.172;2023-02-03T02:09:41;9.27;;;1.80;;
28296;SDS011;62078;49.366;8.172;2023-02-03T02:12:09;15.85;;;1.92;;
28296;SDS011;62078;49.366;8.172;2023-02-03T02:14:35;9.68;;;1.77;;
28296;SDS011;62078;49.366;8.172;2023-02-03T02:17:05;14.05;;;1.85;;
28296;SDS011;62078;49.366;8.172;2023-02-03T02:25:39;12.43;;;2.22;;
28296;SDS011;62078;49.366;8.172;2023-02-03T02:28:17;2.80;;;1.08;;
28296;SDS011;62078;49.366;8.172;2023-02-03T02:37:06;6.95;;;1.10;;
28296;SDS011;62078;49.366;8.172;2023-02-03T02:44:58;8.10;;;1.30;;
28296;SDS011;62078;49.366;8.172;2023-02-03T02:47:32;9.73;;;1.60;;
28296;SDS011;62078;49.366;8.172;2023-02-03T02:50:12;5.45;;;1.33;;
28296;SDS011;62078;49.366;8.172;2023-02-03T02:52:42;4.68;;;1.10;;
28296;SDS011;62078;49.366;8.172;2023-02-03T02:55:15;4.13;;;1.23;;
28296;SDS011;62078;49.366;8.172;2023-02-03T02:57:44;6.10;;;1.38;;
28296;SDS011;62078;49.366;8.172;2023-02-03T03:00:12;6.55;;;1.50;;
28296;SDS011;62078;49.366;8.172;2023-02-03T03:02:38;3.90;;;1.17;;
28296;SDS011;62078;49.366;8.172;2023-02-03T03:05:05;4.72;;;1.42;;
28296;SDS011;62078;49.366;8.172;2023-02-03T03:07:36;4.93;;;1.27;;
28296;SDS011;62078;49.366;8.172;2023-02-03T03:10:26;4.88;;;1.38;;
28296;SDS011;62078;49.366;8.172;2023-02-03T03:13:00;3.75;;;1.27;;
28296;SDS011;62078;49.366;8.172;2023-02-03T03:15:30;4.60;;;1.45;;
28296;SDS011;62078;49.366;8.172;2023-02-03T03:18:00;3.60;;;1.27;;
28296;SDS011;62078;49.366;8.172;2023-02-03T03:20:38;3.40;;;1.33;;
28296;SDS011;62078;49.366;8.172;2023-02-03T03:23:08;3.47;;;1.25;;
28296;SDS011;62078;49.366;8.172;2023-02-03T03:25:41;2.28;;;1.10;;
28296;SDS011;62078;49.366;8.172;2023-02-03T03:28:13;4.18;;;1.35;;
28296;SDS011;62078;49.366;8.172;2023-02-03T03:30:44;3.50;;;1.05;;
28296;SDS011;62078;49.366;8.172;2023-02-03T03:33:10;4.25;;;1.10;;
28296;SDS011;62078;49.366;8.172;2023-02-03T03:35:38;3.40;;;1.10;;
28296;SDS011;62078;49.366;8.172;2023-02-03T03:38:25;3.33;;;1.10;;
28296;SDS011;62078;49.366;8.172;2023-02-03T03:43:55;3.60;;;1.23;;
28296;SDS011;62078;49.366;8.172;2023-02-03T03:46:27;4.13;;;0.93;;
28296;SDS011;62078;49.366;8.172;2023-02-03T03:49:00;2.97;;;1.02;;
28296;SDS011;62078;49.366;8.172;2023-02-03T03:51:33;4.32;;;1.40;;
28296;SDS011;62078;49.366;8.172;2023-02-03T03:54:06;3.65;;;1.10;;
28296;SDS011;62078;49.366;8.172;2023-02-03T03:56:45;3.78;;;1.27;;
28296;SDS011;62078;49.366;8.172;2023-02-03T03:59:16;3.45;;;1.15;;
28296;SDS011;62078;49.366;8.172;2023-02-03T04:01:45;4.50;;;1.50;;
28296;SDS011;62078;49.366;8.172;2023-02-03T04:04:12;2.78;;;0.80;;
28296;SDS011;62078;49.366;8.172;2023-02-03T04:06:40;2.47;;;0.93;;
28296;SDS011;62078;49.366;8.172;2023-02-03T04:09:05;3.55;;;0.90;;
28296;SDS011;62078;49.366;8.172;2023-02-03T04:11:31;3.25;;;0.80;;
28296;SDS011;62078;49.366;8.172;2023-02-03T04:14:16;4.50;;;0.90;;
28296;SDS011;62078;49.366;8.172;2023-02-03T04:16:41;4.05;;;1.02;;
28296;SDS011;62078;49.366;8.172;2023-02-03T04:19:07;3.40;;;1.20;;
28296;SDS011;62078;49.366;8.172;2023-02-03T04:21:33;3.33;;;1.10;;
28296;SDS011;62078;49.366;8.172;2023-02-03T04:23:59;2.53;;;1.13;;
28296;SDS011;62078;49.366;8.172;2023-02-03T04:26:24;3.00;;;1.27;;
28296;SDS011;62078;49.366;8.172;2023-02-03T04:28:50;6.28;;;0.80;;
28296;SDS011;62078;49.366;8.172;2023-02-03T04:31:16;3.30;;;1.00;;
28296;SDS011;62078;49.366;8.172;2023-02-03T04:33:42;3.30;;;0.90;;
28296;SDS011;62078;49.366;8.172;2023-02-03T04:36:08;6.30;;;1.23;;
28296;SDS011;62078;49.366;8.172;2023-02-03T04:38:34;5.63;;;1.15;;
28296;SDS011;62078;49.366;8.172;2023-02-03T04:41:00;5.13;;;1.10;;
28296;SDS011;62078;49.366;8.172;2023-02-03T04:43:25;3.58;;;1.25;;
28296;SDS011;62078;49.366;8.172;2023-02-03T04:45:51;10.48;;;1.20;;
28296;SDS011;62078;49.366;8.172;2023-02-03T04:48:17;3.53;;;0.90;;
28296;SDS011;62078;49.366;8.172;2023-02-03T04:50:43;3.55;;;1.13;;
28296;SDS011;62078;49.366;8.172;2023-02-03T04:53:08;2.40;;;0.98;;
28296;SDS011;62078;49.366;8.172;2023-02-03T04:55:34;3.47;;;1.13;;
28296;SDS011;62078;49.366;8.172;2023-02-03T04:58:00;3.72;;;1.05;;
28296;SDS011;62078;49.366;8.172;2023-02-03T05:00:26;4.15;;;1.15;;
28296;SDS011;62078;49.366;8.172;2023-02-03T05:02:53;3.97;;;1.02;;
28296;SDS011;62078;49.366;8.172;2023-02-03T05:05:19;10.77;;;1.40;;
28296;SDS011;62078;49.366;8.172;2023-02-03T05:07:45;3.67;;;0.95;;
28296;SDS011;62078;49.366;8.172;2023-02-03T05:10:11;3.08;;;0.95;;
28296;SDS011;62078;49.366;8.172;2023-02-03T05:12:37;3.63;;;1.27;;
28296;SDS011;62078;49.366;8.172;2023-02-03T05:15:03;5.25;;;1.15;;
28296;SDS011;62078;49.366;8.172;2023-02-03T05:17:28;4.32;;;1.38;;
28296;SDS011;62078;49.366;8.172;2023-02-03T05:19:54;4.80;;;1.05;;
28296;SDS011;62078;49.366;8.172;2023-02-03T05:22:20;6.05;;;1.25;;
28296;SDS011;62078;49.366;8.172;2023-02-03T05:24:46;3.60;;;1.10;;
28296;SDS011;62078;49.366;8.172;2023-02-03T05:27:11;4.05;;;1.00;;
28296;SDS011;62078;49.366;8.172;2023-02-03T05:29:37;4.63;;;0.98;;
28296;SDS011;62078;49.366;8.172;2023-02-03T05:32:03;3.60;;;0.82;;
28296;SDS011;62078;49.366;8.172;2023-02-03T05:34:29;4.40;;;1.15;;
28296;SDS011;62078;49.366;8.172;2023-02-03T05:36:55;6.90;;;1.35;;
28296;SDS011;62078;49.366;8.172;2023-02-03T05:39:20;13.40;;;2.08;;
28296;SDS011;62078;49.366;8.172;2023-02-03T05:41:46;13.15;;;2.33;;
28296;SDS011;62078;49.366;8.172;2023-02-03T05:44:18;11.40;;;1.58;;
28296;SDS011;62078;49.366;8.172;2023-02-03T05:46:45;10.80;;;1.55;;
28296;SDS011;62078;49.366;8.172;2023-02-03T05:49:10;13.85;;;1.60;;
28296;SDS011;62078;49.366;8.172;2023-02-03T05:51:37;11.13;;;1.67;;
28296;SDS011;62078;49.366;8.172;2023-02-03T05:54:03;11.40;;;1.85;;
28296;SDS011;62078;49.366;8.172;2023-02-03T05:56:29;9.82;;;1.52;;
28296;SDS011;62078;49.366;8.172;2023-02-03T05:58:55;7.10;;;1.30;;
28296;SDS011;62078;49.366;8.172;2023-02-03T06:01:21;10.68;;;2.08;;
28296;SDS011;62078;49.366;8.172;2023-02-03T06:03:47;17.17;;;1.90;;
28296;SDS011;62078;49.366;8.172;2023-02-03T06:06:13;11.68;;;1.90;;
28296;SDS011;62078;49.366;8.172;2023-02-03T06:08:39;12.95;;;1.92;;
28296;SDS011;62078;49.366;8.172;2023-02-03T06:11:05;8.98;;;1.80;;
28296;SDS011;62078;49.366;8.172;2023-02-03T06:13:30;11.73;;;1.75;;
28296;SDS011;62078;49.366;8.172;2023-02-03T06:15:56;9.77;;;1.80;;
28296;SDS011;62078;49.366;8.172;2023-02-03T06:18:22;16.90;;;2.30;;
28296;SDS011;62078;49.366;8.172;2023-02-03T06:20:48;15.85;;;2.50;;
28296;SDS011;62078;49.366;8.172;2023-02-03T06:23:15;12.20;;;1.98;;
28296;SDS011;62078;49.366;8.172;2023-02-03T06:25:46;14.68;;;1.48;;
28296;SDS011;62078;49.366;8.172;2023-02-03T06:28:13;10.93;;;1.88;;
28296;SDS011;62078;49.366;8.172;2023-02-03T06:30:39;16.02;;;2.08;;
28296;SDS011;62078;49.366;8.172;2023-02-03T06:33:05;10.88;;;2.08;;
28296;SDS011;62078;49.366;8.172;2023-02-03T06:35:31;8.32;;;1.63;;
28296;SDS011;62078;49.366;8.172;2023-02-03T06:37:56;8.40;;;1.40;;
28296;SDS011;62078;49.366;8.172;2023-02-03T06:40:22;9.70;;;1.45;;
28296;SDS011;62078;49.366;8.172;2023-02-03T06:42:48;12.13;;;2.10;;
28296;SDS011;62078;49.366;8.172;2023-02-03T06:45:15;7.25;;;1.80;;
28296;SDS011;62078;49.366;8.172;2023-02-03T06:47:41;10.30;;;1.90;;
28296;SDS011;62078;49.366;8.172;2023-02-03T06:50:09;10.77;;;2.05;;
28296;SDS011;62078;49.366;8.172;2023-02-03T06:52:36;14.70;;;1.85;;
28296;SDS011;62078;49.366;8.172;2023-02-03T06:55:02;11.82;;;2.03;;
28296;SDS011;62078;49.366;8.172;2023-02-03T06:57:29;11.13;;;2.42;;
28296;SDS011;62078;49.366;8.172;2023-02-03T06:59:55;16.10;;;1.50;;
28296;SDS011;62078;49.366;8.172;2023-02-03T07:02:21;10.20;;;1.83;;
28296;SDS011;62078;49.366;8.172;2023-02-03T07:04:47;7.15;;;1.38;;
28296;SDS011;62078;49.366;8.172;2023-02-03T07:07:13;8.90;;;1.48;;
28296;SDS011;62078;49.366;8.172;2023-02-03T07:09:39;8.73;;;1.67;;
28296;SDS011;62078;49.366;8.172;2023-02-03T07:12:05;9.57;;;1.80;;
28296;SDS011;62078;49.366;8.172;2023-02-03T07:14:32;5.95;;;1.33;;
28296;SDS011;62078;49.366;8.172;2023-02-03T07:17:00;9.90;;;1.25;;
28296;SDS011;62078;49.366;8.172;2023-02-03T07:19:26;12.18;;;2.13;;
28296;SDS011;62078;49.366;8.172;2023-02-03T07:21:52;14.00;;;2.13;;
28296;SDS011;62078;49.366;8.172;2023-02-03T07:24:18;8.30;;;1.45;;
28296;SDS011;62078;49.366;8.172;2023-02-03T07:26:44;6.03;;;1.55;;
28296;SDS011;62078;49.366;8.172;2023-02-03T07:29:10;3.90;;;1.20;;
28296;SDS011;62078;49.366;8.172;2023-02-03T07:31:35;6.07;;;1.30;;
28296;SDS011;62078;49.366;8.172;2023-02-03T07:34:02;3.47;;;1.20;;
28296;SDS011;62078;49.366;8.172;2023-02-03T07:36:28;13.77;;;1.60;;
28296;SDS011;62078;49.366;8.172;2023-02-03T07:38:54;5.40;;;1.20;;
28296;SDS011;62078;49.366;8.172;2023-02-03T07:41:20;6.93;;;1.45;;
28296;SDS011;62078;49.366;8.172;2023-02-03T07:43:46;6.13;;;1.80;;
28296;SDS011;62078;49.366;8.172;2023-02-03T07:46:12;7.45;;;1.33;;
28296;SDS011;62078;49.366;8.172;2023-02-03T07:48:38;6.35;;;1.55;;
28296;SDS011;62078;49.366;8.172;2023-02-03T07:51:03;8.00;;;1.50;;
28296;SDS011;62078;49.366;8.172;2023-02-03T07:53:29;8.18;;;1.30;;
28296;SDS011;62078;49.366;8.172;2023-02-03T07:55:59;7.38;;;1.33;;
28296;SDS011;62078;49.366;8.172;2023-02-03T07:58:29;7.03;;;1.50;;
28296;SDS011;62078;49.366;8.172;2023-02-03T08:00:55;2.92;;;1.23;;
28296;SDS011;62078;49.366;8.172;2023-02-03T08:03:22;2.75;;;1.10;;
28296;SDS011;62078;49.366;8.172;2023-02-03T08:05:47;7.47;;;1.50;;
28296;SDS011;62078;49.366;8.172;2023-02-03T08:08:13;3.03;;;1.02;;
28296;SDS011;62078;49.366;8.172;2023-02-03T08:10:39;4.72;;;1.33;;
28296;SDS011;62078;49.366;8.172;2023-02-03T08:13:05;4.00;;;1.02;;
28296;SDS011;62078;49.366;8.172;2023-02-03T08:15:30;4.95;;;1.63;;
28296;SDS011;62078;49.366;8.172;2023-02-03T08:17:56;2.47;;;1.00;;
28296;SDS011;62078;49.366;8.172;2023-02-03T08:20:22;8.65;;;1.75;;
28296;SDS011;62078;49.366;8.172;2023-02-03T08:22:48;3.03;;;0.82;;
28296;SDS011;62078;49.366;8.172;2023-02-03T08:25:13;2.67;;;0.68;;
28296;SDS011;62078;49.366;8.172;2023-02-03T08:27:39;4.65;;;1.20;;
28296;SDS011;62078;49.366;8.172;2023-02-03T08:30:06;4.25;;;1.00;;
28296;SDS011;62078;49.366;8.172;2023-02-03T08:32:35;3.72;;;1.25;;
28296;SDS011;62078;49.366;8.172;2023-02-03T08:35:01;4.35;;;0.82;;
28296;SDS011;62078;49.366;8.172;2023-02-03T08:37:27;2.75;;;1.00;;
28296;SDS011;62078;49.366;8.172;2023-02-03T08:39:55;2.25;;;0.75;;
28296;SDS011;62078;49.366;8.172;2023-02-03T08:42:21;3.47;;;0.98;;
28296;SDS011;62078;49.366;8.172;2023-02-03T08:44:47;3.03;;;0.90;;
28296;SDS011;62078;49.366;8.172;2023-02-03T08:47:13;2.85;;;1.10;;
28296;SDS011;62078;49.366;8.172;2023-02-03T08:49:39;3.75;;;0.93;;
28296;SDS011;62078;49.366;8.172;2023-02-03T08:52:05;3.20;;;0.70;;
28296;SDS011;62078;49.366;8.172;2023-02-03T08:54:32;3.15;;;0.70;;
28296;SDS011;62078;49.366;8.172;2023-02-03T08:56:57;3.50;;;0.88;;
28296;SDS011;62078;49.366;8.172;2023-02-03T08:59:23;1.95;;;0.80;;
28296;SDS011;62078;49.366;8.172;2023-02-03T09:01:49;3.95;;;1.02;;
28296;SDS011;62078;49.366;8.172;2023-02-03T09:04:16;4.53;;;1.20;;
28296;SDS011;62078;49.366;8.172;2023-02-03T09:06:44;4.20;;;0.90;;
28296;SDS011;62078;49.366;8.172;2023-02-03T09:09:12;4.80;;;1.00;;
28296;SDS011;62078;49.366;8.172;2023-02-03T09:11:39;2.78;;;1.00;;
28296;SDS011;62078;49.366;8.172;2023-02-03T09:14:06;3.15;;;1.23;;
28296;SDS011;62078;49.366;8.172;2023-02-03T09:16:32;3.05;;;0.90;;
28296;SDS011;62078;49.366;8.172;2023-02-03T09:18:58;3.38;;;1.10;;
28296;SDS011;62078;49.366;8.172;2023-02-03T09:21:23;2.83;;;1.08;;
28296;SDS011;62078;49.366;8.172;2023-02-03T09:23:49;3.67;;;1.08;;
28296;SDS011;62078;49.366;8.172;2023-02-03T09:26:15;2.97;;;0.98;;
28296;SDS011;62078;49.366;8.172;2023-02-03T09:28:41;2.05;;;0.60;;
28296;SDS011;62078;49.366;8.172;2023-02-03T09:31:10;2.72;;;1.02;;
28296;SDS011;62078;49.366;8.172;2023-02-03T09:33:41;2.33;;;0.80;;
28296;SDS011;62078;49.366;8.172;2023-02-03T09:36:08;3.30;;;1.00;;
28296;SDS011;62078;49.366;8.172;2023-02-03T09:38:35;2.65;;;0.80;;
28296;SDS011;62078;49.366;8.172;2023-02-03T09:44:05;2.28;;;0.80;;
28296;SDS011;62078;49.366;8.172;2023-02-03T09:46:49;3.70;;;0.93;;
28296;SDS011;62078;49.366;8.172;2023-02-03T09:54:48;2.75;;;0.70;;
28296;SDS011;62078;49.366;8.172;2023-02-03T09:57:22;2.95;;;0.77;;
28296;SDS011;62078;49.366;8.172;2023-02-03T09:59:49;1.05;;;0.50;;
28296;SDS011;62078;49.366;8.172;2023-02-03T10:02:22;2.08;;;0.80;;
28296;SDS011;62078;49.366;8.172;2023-02-03T10:13:24;1.42;;;0.70;;
28296;SDS011;62078;49.366;8.172;2023-02-03T10:16:03;2.33;;;0.77;;
28296;SDS011;62078;49.366;8.172;2023-02-03T10:18:35;1.77;;;0.65;;
28296;SDS011;62078;49.366;8.172;2023-02-03T10:21:11;1.73;;;0.60;;
28296;SDS011;62078;49.366;8.172;2023-02-03T10:23:42;2.35;;;0.90;;
28296;SDS011;62078;49.366;8.172;2023-02-03T10:26:22;1.75;;;0.70;;
28296;SDS011;62078;49.366;8.172;2023-02-03T10:28:57;1.02;;;0.47;;
28296;SDS011;62078;49.366;8.172;2023-02-03T10:31:33;2.17;;;0.70;;
28296;SDS011;62078;49.366;8.172;2023-02-03T10:34:07;1.60;;;0.77;;
28296;SDS011;62078;49.366;8.172;2023-02-03T10:36:41;3.08;;;0.90;;
28296;SDS011;62078;49.366;8.172;2023-02-03T10:41:57;2.03;;;0.70;;
28296;SDS011;62078;49.366;8.172;2023-02-03T10:44:34;2.75;;;0.90;;
28296;SDS011;62078;49.366;8.172;2023-02-03T10:49:50;2.05;;;0.50;;
28296;SDS011;62078;49.366;8.172;2023-02-03T10:52:28;2.60;;;0.70;;
28296;SDS011;62078;49.366;8.172;2023-02-03T10:54:56;3.15;;;1.17;;
28296;SDS011;62078;49.366;8.172;2023-02-03T10:57:23;2.55;;;0.90;;
28296;SDS011;62078;49.366;8.172;2023-02-03T10:59:51;1.58;;;0.47;;
28296;SDS011;62078;49.366;8.172;2023-02-03T11:02:29;1.60;;;0.75;;
28296;SDS011;62078;49.366;8.172;2023-02-03T11:05:08;2.28;;;0.77;;
28296;SDS011;62078;49.366;8.172;2023-02-03T11:07:40;1.85;;;0.65;;
28296;SDS011;62078;49.366;8.172;2023-02-03T11:15:42;1.65;;;0.47;;
28296;SDS011;62078;49.366;8.172;2023-02-03T11:18:24;3.53;;;0.80;;
28296;SDS011;62078;49.366;8.172;2023-02-03T11:20:56;1.60;;;0.52;;
28296;SDS011;62078;49.366;8.172;2023-02-03T11:23:23;2.22;;;0.80;;
28296;SDS011;62078;49.366;8.172;2023-02-03T11:25:49;1.98;;;0.60;;
28296;SDS011;62078;49.366;8.172;2023-02-03T11:28:14;1.95;;;0.70;;
28296;SDS011;62078;49.366;8.172;2023-02-03T11:30:41;1.60;;;0.60;;
28296;SDS011;62078;49.366;8.172;2023-02-03T11:33:17;1.88;;;0.60;;
28296;SDS011;62078;49.366;8.172;2023-02-03T11:35:57;2.20;;;0.70;;
28296;SDS011;62078;49.366;8.172;2023-02-03T11:38:33;2.53;;;0.77;;
28296;SDS011;62078;49.366;8.172;2023-02-03T11:41:04;2.88;;;0.70;;
28296;SDS011;62078;49.366;8.172;2023-02-03T11:43:30;2.25;;;0.90;;
28296;SDS011;62078;49.366;8.172;2023-02-03T11:45:59;1.33;;;0.65;;
28296;SDS011;62078;49.366;8.172;2023-02-03T11:48:31;2.28;;;0.95;;
28296;SDS011;62078;49.366;8.172;2023-02-03T12:02:02;4.50;;;1.20;;
28296;SDS011;62078;49.366;8.172;2023-02-03T12:10:20;3.42;;;0.95;;
28296;SDS011;62078;49.366;8.172;2023-02-03T12:13:18;2.58;;;0.95;;
28296;SDS011;62078;49.366;8.172;2023-02-03T12:21:55;3.63;;;0.70;;
28296;SDS011;62078;49.366;8.172;2023-02-03T12:24:50;2.25;;;0.70;;
28296;SDS011;62078;49.366;8.172;2023-02-03T12:30:04;2.20;;;0.73;;
28296;SDS011;62078;49.366;8.172;2023-02-03T12:32:57;2.90;;;0.70;;
28296;SDS011;62078;49.366;8.172;2023-02-03T12:35:31;3.80;;;0.80;;
28296;SDS011;62078;49.366;8.172;2023-02-03T12:38:12;2.78;;;1.00;;
28296;SDS011;62078;49.366;8.172;2023-02-03T12:40:55;2.67;;;1.00;;
28296;SDS011;62078;49.366;8.172;2023-02-03T12:51:59;2.35;;;1.00;;
28296;SDS011;62078;49.366;8.172;2023-02-03T12:57:43;3.58;;;1.15;;
28296;SDS011;62078;49.366;8.172;2023-02-03T13:05:37;1.60;;;0.60;;
28296;SDS011;62078;49.366;8.172;2023-02-03T13:08:36;0.90;;;0.50;;
28296;SDS011;62078;49.366;8.172;2023-02-03T13:11:41;1.98;;;0.30;;
28296;SDS011;62078;49.366;8.172;2023-02-03T13:14:18;0.85;;;0.50;;
28296;SDS011;62078;49.366;8.172;2023-02-03T13:16:56;1.60;;;0.55;;
28296;SDS011;62078;49.366;8.172;2023-02-03T13:19:28;2.45;;;0.65;;
28296;SDS011;62078;49.366;8.172;2023-02-03T13:22:12;1.35;;;0.50;;
28296;SDS011;62078;49.366;8.172;2023-02-03T13:24:44;0.80;;;0.50;;
28296;SDS011;62078;49.366;8.172;2023-02-03T13:27:28;0.70;;;0.30;;
28296;SDS011;62078;49.366;8.172;2023-02-03T13:33:53;0.50;;;0.30;;
28296;SDS011;62078;49.366;8.172;2023-02-03T13:36:36;0.10;;;0.10;;
28296;SDS011;62078;49.366;8.172;2023-02-03T13:41:50;2.55;;;0.45;;
28296;SDS011;62078;49.366;8.172;2023-02-03T13:44:31;1.23;;;0.30;;
28296;SDS011;62078;49.366;8.172;2023-02-03T13:46:58;0.75;;;0.50;;
28296;SDS011;62078;49.366;8.172;2023-02-03T13:49:29;6.38;;;2.78;;
28296;SDS011;62078;49.366;8.172;2023-02-03T13:51:57;3.42;;;0.60;;
28296;SDS011;62078;49.366;8.172;2023-02-03T13:54:28;1.30;;;0.45;;
28296;SDS011;62078;49.366;8.172;2023-02-03T13:57:26;1.45;;;0.50;;
28296;SDS011;62078;49.366;8.172;2023-02-03T13:59:58;4.63;;;1.90;;
28296;SDS011;62078;49.366;8.172;2023-02-03T14:04:53;8.77;;;3.60;;
28296;SDS011;62078;49.366;8.172;2023-02-03T14:12:36;26.58;;;10.40;;
28296;SDS011;62078;49.366;8.172;2023-02-03T14:15:27;13.40;;;6.03;;
28296;SDS011;62078;49.366;8.172;2023-02-03T14:20:48;6.18;;;2.05;;
28296;SDS011;62078;49.366;8.172;2023-02-03T14:23:20;3.88;;;1.50;;
28296;SDS011;62078;49.366;8.172;2023-02-03T14:25:51;5.30;;;3.30;;
28296;SDS011;62078;49.366;8.172;2023-02-03T14:28:42;2.60;;;1.40;;
28296;SDS011;62078;49.366;8.172;2023-02-03T14:31:10;2.33;;;1.10;;
28296;SDS011;62078;49.366;8.172;2023-02-03T14:36:41;2.22;;;0.55;;
28296;SDS011;62078;49.366;8.172;2023-02-03T14:47:10;4.43;;;2.80;;
28296;SDS011;62078;49.366;8.172;2023-02-03T14:50:31;2.45;;;1.20;;
28296;SDS011;62078;49.366;8.172;2023-02-03T14:55:41;2.53;;;0.77;;
28296;SDS011;62078;49.366;8.172;2023-02-03T15:01:05;4.47;;;2.30;;
28296;SDS011;62078;49.366;8.172;2023-02-03T15:03:32;3.65;;;1.67;;
28296;SDS011;62078;49.366;8.172;2023-02-03T15:06:03;6.82;;;3.58;;
28296;SDS011;62078;49.366;8.172;2023-02-03T15:13:43;10.30;;;2.57;;
28296;SDS011;62078;49.366;8.172;2023-02-03T15:16:11;11.57;;;2.00;;
28296;SDS011;62078;49.366;8.172;2023-02-03T15:18:42;6.45;;;2.00;;
28296;SDS011;62078;49.366;8.172;2023-02-03T15:21:17;10.15;;;1.63;;
28296;SDS011;62078;49.366;8.172;2023-02-03T15:23:45;6.72;;;1.50;;
28296;SDS011;62078;49.366;8.172;2023-02-03T15:26:13;8.05;;;1.60;;
28296;SDS011;62078;49.366;8.172;2023-02-03T15:28:42;3.15;;;1.02;;
28296;SDS011;62078;49.366;8.172;2023-02-03T15:33:45;12.07;;;2.10;;
28296;SDS011;62078;49.366;8.172;2023-02-03T15:36:17;11.25;;;2.25;;
28296;SDS011;62078;49.366;8.172;2023-02-03T15:38:47;8.65;;;1.33;;
28296;SDS011;62078;49.366;8.172;2023-02-03T15:41:21;9.38;;;1.90;;
28296;SDS011;62078;49.366;8.172;2023-02-03T15:43:48;9.38;;;1.80;;
28296;SDS011;62078;49.366;8.172;2023-02-03T15:49:05;12.63;;;2.53;;
28296;SDS011;62078;49.366;8.172;2023-02-03T15:51:44;6.30;;;1.90;;
28296;SDS011;62078;49.366;8.172;2023-02-03T15:57:01;7.70;;;1.70;;
28296;SDS011;62078;49.366;8.172;2023-02-03T15:59:35;11.27;;;1.85;;
28296;SDS011;62078;49.366;8.172;2023-02-03T16:02:13;5.57;;;1.30;;
28296;SDS011;62078;49.366;8.172;2023-02-03T16:04:42;6.75;;;1.40;;
28296;SDS011;62078;49.366;8.172;2023-02-03T16:07:27;5.22;;;1.30;;
28296;SDS011;62078;49.366;8.172;2023-02-03T16:09:54;6.47;;;1.20;;
28296;SDS011;62078;49.366;8.172;2023-02-03T16:12:23;4.57;;;1.48;;
28296;SDS011;62078;49.366;8.172;2023-02-03T16:14:51;7.93;;;1.33;;
28296;SDS011;62078;49.366;8.172;2023-02-03T16:22:44;7.82;;;1.65;;
28296;SDS011;62078;49.366;8.172;2023-02-03T16:25:24;9.48;;;1.38;;
28296;SDS011;62078;49.366;8.172;2023-02-03T16:27:55;6.35;;;1.00;;
28296;SDS011;62078;49.366;8.172;2023-02-03T16:33:45;5.75;;;1.30;;
